createdAt,value
2017-09-05T00:02:11.045Z,73.34
2017-09-05T00:04:39.126Z,73.29
2017-09-05T00:07:07.037Z,73.40
2017-09-05T00:12:49.504Z,74.04
2017-09-05T00:15:17.851Z,73.95
2017-09-05T00:20:52.432Z,73.92
2017-09-05T00:23:20.341Z,73.66
2017-09-05T00:25:48.311Z,74.20
2017-09-05T00:28:16.219Z,73.84
2017-09-05T00:30:44.315Z,73.68
2017-09-05T00:33:12.272Z,74.25
2017-09-05T00:35:40.168Z,74.46
2017-09-05T00:38:08.112Z,74.49
2017-09-05T00:40:36.033Z,74.60
2017-09-05T00:43:03.951Z,74.92
2017-09-05T00:45:31.888Z,75.14
2017-09-05T00:47:59.789Z,75.07
2017-09-05T00:50:27.685Z,75.66
2017-09-05T00:52:55.636Z,76.00
2017-09-05T00:55:23.551Z,75.73
2017-09-05T00:57:51.471Z,76.09
2017-09-05T01:00:19.422Z,76.23
2017-09-05T01:02:47.389Z,76.11
2017-09-05T01:05:15.359Z,76.34
2017-09-05T01:07:43.314Z,76.72
2017-09-05T01:10:11.291Z,76.84
2017-09-05T01:12:39.421Z,77.24
2017-09-05T01:15:07.335Z,77.53
2017-09-05T01:17:35.409Z,77.80
2017-09-05T01:20:03.436Z,78.58
2017-09-05T01:22:31.446Z,78.87
2017-09-05T01:24:59.356Z,78.95
2017-09-05T01:27:27.309Z,79.15
2017-09-05T01:29:55.252Z,78.83
2017-09-05T01:32:23.202Z,79.19
2017-09-05T01:34:51.129Z,79.47
2017-09-05T01:37:19.108Z,79.25
2017-09-05T01:39:47.018Z,79.32
2017-09-05T01:42:14.934Z,79.55
2017-09-05T01:44:42.839Z,79.42
2017-09-05T01:47:10.750Z,79.78
2017-09-05T01:49:38.650Z,80.34
2017-09-05T01:52:06.646Z,80.06
2017-09-05T01:54:34.621Z,80.34
2017-09-05T01:57:02.587Z,80.11
2017-09-05T01:59:30.561Z,80.12
2017-09-05T02:01:58.987Z,79.93
2017-09-05T02:04:26.892Z,80.16
2017-09-05T02:06:54.833Z,80.21
2017-09-05T02:09:22.729Z,80.64
2017-09-05T02:11:50.719Z,80.33
2017-09-05T02:14:18.686Z,80.81
2017-09-05T02:16:46.647Z,80.77
2017-09-05T02:19:14.613Z,81.04
2017-09-05T02:21:42.525Z,81.25
2017-09-05T02:24:10.452Z,80.83
2017-09-05T02:26:38.380Z,80.75
2017-09-05T02:31:40.624Z,81.04
2017-09-05T02:34:08.525Z,80.68
2017-09-05T02:36:36.450Z,80.88
2017-09-05T02:39:04.376Z,80.68
2017-09-05T02:41:32.276Z,80.26
2017-09-05T02:44:00.234Z,79.89
2017-09-05T02:46:28.203Z,80.17
2017-09-05T02:48:56.113Z,80.49
2017-09-05T02:51:24.138Z,80.53
2017-09-05T02:53:52.049Z,80.47
2017-09-05T02:56:19.996Z,80.69
2017-09-05T02:58:47.960Z,80.65
2017-09-05T03:01:15.859Z,80.86
2017-09-05T03:03:43.795Z,80.47
2017-09-05T03:06:11.764Z,80.73
2017-09-05T03:08:39.723Z,80.93
2017-09-05T03:11:07.634Z,80.70
2017-09-05T03:13:35.540Z,81.45
2017-09-05T03:16:03.536Z,81.67
2017-09-05T03:18:31.492Z,81.30
2017-09-05T03:21:00.204Z,80.79
2017-09-05T03:23:28.097Z,80.72
2017-09-05T03:25:56.079Z,81.17
2017-09-05T03:28:24.094Z,81.58
2017-09-05T03:30:51.990Z,81.10
2017-09-05T03:33:19.939Z,81.92
2017-09-05T03:35:47.994Z,81.58
2017-09-05T03:38:15.961Z,81.50
2017-09-05T03:40:43.875Z,81.72
2017-09-05T03:43:11.800Z,82.02
2017-09-05T03:45:39.772Z,82.55
2017-09-05T03:48:07.686Z,82.04
2017-09-05T03:50:35.590Z,81.99
2017-09-05T03:53:03.524Z,82.71
2017-09-05T03:55:31.431Z,83.19
2017-09-05T03:57:59.362Z,83.20
2017-09-05T04:00:27.376Z,82.65
2017-09-05T04:02:55.280Z,81.97
2017-09-05T04:05:23.188Z,82.94
2017-09-05T04:07:51.180Z,82.57
2017-09-05T04:10:19.103Z,82.54
2017-09-05T04:12:47.024Z,82.67
2017-09-05T04:15:14.949Z,82.66
2017-09-05T04:17:42.960Z,82.46
2017-09-05T04:20:10.867Z,82.93
2017-09-05T04:22:38.758Z,82.43
2017-09-05T04:25:06.759Z,82.91
2017-09-05T04:27:34.720Z,83.21
2017-09-05T04:30:02.625Z,83.70
2017-09-05T04:32:30.564Z,83.91
2017-09-05T04:34:58.526Z,83.73
2017-09-05T04:37:26.443Z,83.47
2017-09-05T04:39:54.353Z,83.19
2017-09-05T04:42:22.261Z,83.03
2017-09-05T04:44:50.192Z,82.86
2017-09-05T04:47:18.160Z,82.35
2017-09-05T04:49:46.066Z,82.15
2017-09-05T04:52:13.990Z,81.52
2017-09-05T04:54:42.061Z,81.14
2017-09-05T04:57:10.046Z,80.72
2017-09-05T04:59:37.954Z,80.11
2017-09-05T05:02:05.890Z,78.27
2017-09-05T05:04:33.804Z,75.11
2017-09-05T05:07:01.729Z,71.22
2017-09-05T05:09:29.640Z,68.39
2017-09-05T05:11:57.548Z,65.66
2017-09-05T05:14:25.798Z,62.60
2017-09-05T05:16:53.695Z,61.69
2017-09-05T05:19:21.671Z,58.94
2017-09-05T05:21:49.618Z,56.90
2017-09-05T05:24:17.561Z,54.41
2017-09-05T05:26:45.483Z,53.15
2017-09-05T05:29:13.391Z,51.81
2017-09-05T05:31:41.335Z,49.87
2017-09-05T05:34:09.373Z,48.40
2017-09-05T05:36:37.266Z,46.12
2017-09-05T05:39:05.186Z,45.33
2017-09-05T05:41:33.171Z,43.75
2017-09-05T05:44:01.084Z,43.15
2017-09-05T05:46:29.065Z,41.39
2017-09-05T05:48:57.033Z,40.43
2017-09-05T05:51:25.043Z,39.72
2017-09-05T05:53:52.944Z,38.23
2017-09-05T05:56:20.851Z,36.89
2017-09-05T05:58:48.847Z,36.55
2017-09-05T06:01:16.760Z,37.13
2017-09-05T06:03:44.654Z,35.33
2017-09-05T06:06:12.608Z,35.60
2017-09-05T06:08:40.514Z,35.50
2017-09-05T06:11:08.443Z,35.09
2017-09-05T06:13:36.459Z,33.91
2017-09-05T06:16:05.126Z,33.76
2017-09-05T06:18:33.067Z,33.90
2017-09-05T06:21:01.077Z,33.55
2017-09-05T06:23:28.985Z,32.37
2017-09-05T06:25:56.900Z,32.19
2017-09-05T06:28:24.794Z,31.77
2017-09-05T06:30:52.694Z,31.23
2017-09-05T06:33:20.624Z,31.55
2017-09-05T06:35:48.544Z,31.63
2017-09-05T06:38:16.553Z,31.09
2017-09-05T06:40:44.525Z,30.10
2017-09-05T06:43:12.436Z,30.03
2017-09-05T06:45:40.347Z,30.59
2017-09-05T06:48:08.320Z,30.57
2017-09-05T06:50:36.278Z,30.04
2017-09-05T06:53:04.842Z,28.59
2017-09-05T06:55:32.952Z,27.39
2017-09-05T06:58:00.856Z,27.60
2017-09-05T07:00:28.846Z,27.21
2017-09-05T07:02:56.885Z,26.03
2017-09-05T07:05:24.769Z,26.04
2017-09-05T07:07:52.691Z,25.74
2017-09-05T07:10:20.655Z,23.71
2017-09-05T07:12:48.581Z,23.60
2017-09-05T07:15:16.503Z,23.62
2017-09-05T07:17:44.548Z,24.52
2017-09-05T07:20:12.473Z,25.06
2017-09-05T07:22:40.385Z,25.31
2017-09-05T07:25:08.316Z,24.79
2017-09-05T07:27:36.238Z,23.94
2017-09-05T07:30:04.195Z,23.76
2017-09-05T07:32:32.112Z,23.22
2017-09-05T07:35:00.063Z,24.44
2017-09-05T07:37:28.009Z,23.94
2017-09-05T07:39:55.924Z,23.60
2017-09-05T07:42:23.828Z,24.71
2017-09-05T07:44:51.869Z,24.88
2017-09-05T07:47:19.784Z,24.85
2017-09-05T07:49:47.704Z,24.03
2017-09-05T07:52:15.703Z,23.83
2017-09-05T07:54:43.695Z,23.67
2017-09-05T07:57:11.625Z,24.29
2017-09-05T07:59:39.550Z,24.85
2017-09-05T08:02:07.456Z,24.66
2017-09-05T08:04:35.372Z,23.61
2017-09-05T08:07:03.284Z,23.95
2017-09-05T08:09:31.287Z,26.12
2017-09-05T08:11:59.269Z,25.09
2017-09-05T08:14:27.241Z,24.96
2017-09-05T08:16:55.167Z,25.97
2017-09-05T08:19:23.169Z,26.03
2017-09-05T08:21:51.093Z,25.81
2017-09-05T08:24:19.047Z,25.93
2017-09-05T08:26:46.963Z,26.12
2017-09-05T08:29:14.897Z,24.91
2017-09-05T08:31:42.864Z,25.84
2017-09-05T08:34:10.767Z,26.66
2017-09-05T08:36:38.843Z,27.00
2017-09-05T08:39:06.811Z,27.36
2017-09-05T08:41:34.893Z,26.70
2017-09-05T08:44:02.792Z,26.23
2017-09-05T08:49:22.310Z,25.60
2017-09-05T08:51:50.221Z,25.99
2017-09-05T08:54:18.296Z,25.65
2017-09-05T08:56:46.206Z,24.57
2017-09-05T08:59:14.133Z,23.57
2017-09-05T09:01:42.069Z,24.81
2017-09-05T09:04:09.969Z,24.84
2017-09-05T09:06:37.931Z,24.45
2017-09-05T09:09:05.884Z,25.16
2017-09-05T09:11:33.812Z,24.14
2017-09-05T09:14:01.760Z,23.29
2017-09-05T09:16:29.681Z,23.33
2017-09-05T09:18:57.655Z,23.48
2017-09-05T09:21:25.566Z,23.58
2017-09-05T09:23:53.472Z,23.13
2017-09-05T09:26:21.404Z,22.62
2017-09-05T09:28:49.332Z,22.85
2017-09-05T09:31:17.247Z,23.41
2017-09-05T09:33:45.266Z,22.62
2017-09-05T09:36:13.168Z,22.88
2017-09-05T09:38:41.075Z,23.98
2017-09-05T09:41:08.992Z,23.35
2017-09-05T09:43:37.035Z,22.36
2017-09-05T09:46:04.964Z,22.76
2017-09-05T09:48:32.976Z,24.03
2017-09-05T09:51:00.879Z,23.57
2017-09-05T09:53:28.803Z,22.77
2017-09-05T09:55:56.713Z,22.99
2017-09-05T09:58:24.611Z,23.29
2017-09-05T10:00:52.518Z,22.79
2017-09-05T10:03:20.423Z,22.69
2017-09-05T10:05:48.361Z,22.10
2017-09-05T10:08:16.312Z,22.96
2017-09-05T10:10:44.220Z,22.53
2017-09-05T10:13:12.216Z,23.21
2017-09-05T10:15:40.137Z,23.32
2017-09-05T10:18:08.033Z,25.36
2017-09-05T10:20:35.936Z,25.42
2017-09-05T10:23:03.941Z,25.64
2017-09-05T10:25:31.850Z,26.75
2017-09-05T10:27:59.751Z,28.02
2017-09-05T10:30:27.671Z,29.01
2017-09-05T10:32:55.579Z,30.01
2017-09-05T10:35:23.572Z,29.27
2017-09-05T10:37:51.463Z,28.28
2017-09-05T10:40:19.383Z,28.83
2017-09-05T10:42:47.351Z,29.05
2017-09-05T10:45:15.254Z,28.53
2017-09-05T10:47:43.200Z,28.40
2017-09-05T10:50:11.112Z,28.41
2017-09-05T10:52:39.020Z,28.96
2017-09-05T10:55:06.939Z,28.38
2017-09-05T10:57:34.972Z,29.49
2017-09-05T11:00:02.872Z,29.31
2017-09-05T11:02:30.780Z,29.31
2017-09-05T11:04:58.690Z,29.11
2017-09-05T11:07:26.645Z,29.51
2017-09-05T11:09:54.604Z,30.46
2017-09-05T11:12:22.533Z,30.46
2017-09-05T11:14:50.436Z,30.59
2017-09-05T11:17:18.360Z,31.00
2017-09-05T11:19:46.255Z,31.73
2017-09-05T11:22:14.170Z,31.94
2017-09-05T11:24:42.083Z,33.36
2017-09-05T11:27:10.073Z,33.75
2017-09-05T11:29:38.928Z,35.15
2017-09-05T11:32:06.831Z,35.84
2017-09-05T11:34:34.746Z,36.55
2017-09-05T11:37:02.668Z,37.69
2017-09-05T11:39:30.652Z,37.68
2017-09-05T11:41:58.569Z,36.99
2017-09-05T11:44:26.584Z,38.26
2017-09-05T11:46:54.489Z,38.10
2017-09-05T11:49:22.606Z,38.46
2017-09-05T11:51:50.614Z,37.93
2017-09-05T11:54:18.560Z,39.09
2017-09-05T11:56:46.513Z,38.97
2017-09-05T11:59:14.451Z,38.23
2017-09-05T12:01:42.467Z,38.47
2017-09-05T12:04:10.362Z,38.75
2017-09-05T12:06:38.272Z,39.62
2017-09-05T12:09:06.263Z,40.06
2017-09-05T12:11:34.240Z,39.64
2017-09-05T12:14:02.165Z,39.60
2017-09-05T12:16:30.202Z,38.60
2017-09-05T12:18:58.127Z,38.50
2017-09-05T12:21:26.087Z,39.22
2017-09-05T12:23:53.997Z,38.85
2017-09-05T12:26:21.946Z,38.92
2017-09-05T12:28:50.002Z,38.72
2017-09-05T12:31:18.041Z,39.07
2017-09-05T12:33:45.963Z,38.99
2017-09-05T12:36:13.857Z,38.84
2017-09-05T12:38:44.025Z,39.00
2017-09-05T12:41:15.545Z,38.69
2017-09-05T12:43:48.477Z,39.15
2017-09-05T12:46:20.359Z,38.64
2017-09-05T12:48:48.276Z,38.59
2017-09-05T12:51:16.189Z,38.02
2017-09-05T12:53:44.120Z,38.37
2017-09-05T12:56:12.058Z,39.27
2017-09-05T12:58:39.978Z,39.56
2017-09-05T13:01:07.874Z,38.77
2017-09-05T13:03:35.793Z,38.39
2017-09-05T13:06:03.893Z,38.25
2017-09-05T13:08:31.850Z,38.03
2017-09-05T13:10:59.814Z,39.13
2017-09-05T13:13:27.736Z,39.21
2017-09-05T13:15:55.641Z,39.22
2017-09-05T13:18:23.564Z,39.08
2017-09-05T13:20:51.459Z,39.18
2017-09-05T13:23:19.447Z,38.47
2017-09-05T13:25:47.423Z,38.62
2017-09-05T13:28:15.327Z,38.26
2017-09-05T13:30:43.262Z,38.29
2017-09-05T13:33:11.234Z,39.03
2017-09-05T13:35:39.205Z,38.52
2017-09-05T13:38:07.193Z,38.09
2017-09-05T13:40:35.106Z,37.14
2017-09-05T13:43:03.021Z,36.24
2017-09-05T13:45:31.070Z,37.06
2017-09-05T13:47:58.972Z,37.64
2017-09-05T13:50:26.912Z,36.96
2017-09-05T13:52:54.837Z,37.08
2017-09-05T13:55:22.853Z,36.74
2017-09-05T13:57:50.861Z,37.21
2017-09-05T14:00:22.155Z,36.95
2017-09-05T14:02:50.127Z,36.35
2017-09-05T14:05:18.094Z,36.57
2017-09-05T14:07:45.999Z,36.37
2017-09-05T14:10:13.912Z,36.10
2017-09-05T14:12:41.817Z,36.62
2017-09-05T14:15:09.726Z,36.73
2017-09-05T14:17:37.698Z,35.49
2017-09-05T14:20:05.611Z,35.07
2017-09-05T14:22:33.519Z,35.70
2017-09-05T14:25:01.498Z,35.83
2017-09-05T14:27:29.403Z,35.27
2017-09-05T14:29:57.303Z,35.36
2017-09-05T14:32:25.232Z,33.62
2017-09-05T14:34:53.131Z,33.25
2017-09-05T14:37:21.070Z,33.46
2017-09-05T14:39:48.995Z,33.81
2017-09-05T14:42:16.912Z,35.08
2017-09-05T14:44:44.822Z,34.04
2017-09-05T14:47:12.768Z,33.88
2017-09-05T14:49:40.676Z,34.54
2017-09-05T14:52:08.688Z,35.21
2017-09-05T14:54:36.642Z,35.35
2017-09-05T14:57:04.627Z,35.24
2017-09-05T14:59:32.533Z,35.48
2017-09-05T15:02:00.466Z,36.05
2017-09-05T15:04:28.361Z,36.16
2017-09-05T15:06:56.274Z,35.79
2017-09-05T15:09:24.268Z,36.06
2017-09-05T15:11:52.222Z,35.63
2017-09-05T15:14:20.196Z,35.90
2017-09-05T15:16:48.184Z,36.09
2017-09-05T15:19:16.131Z,36.62
2017-09-05T15:21:44.056Z,36.59
2017-09-05T15:24:11.966Z,36.99
2017-09-05T15:26:39.858Z,35.99
2017-09-05T15:29:07.816Z,36.42
2017-09-05T15:31:35.721Z,36.59
2017-09-05T15:34:03.623Z,36.63
2017-09-05T15:36:31.624Z,36.92
2017-09-05T15:38:59.550Z,37.79
2017-09-05T15:41:27.536Z,37.95
2017-09-05T15:43:55.455Z,36.71
2017-09-05T15:46:23.384Z,37.83
2017-09-05T15:48:51.291Z,37.57
2017-09-05T15:51:19.225Z,36.81
2017-09-05T15:53:47.129Z,36.68
2017-09-05T15:56:15.146Z,36.81
2017-09-05T15:58:43.060Z,36.89
2017-09-05T16:01:11.054Z,37.08
2017-09-05T16:03:38.979Z,37.62
2017-09-05T16:06:07.035Z,37.42
2017-09-05T16:08:34.961Z,37.74
2017-09-05T16:11:02.988Z,37.89
2017-09-05T16:13:30.897Z,38.48
2017-09-05T16:15:58.914Z,38.92
2017-09-05T16:18:26.822Z,38.62
2017-09-05T16:20:54.759Z,39.46
2017-09-05T16:23:22.708Z,39.53
2017-09-05T16:25:50.599Z,39.61
2017-09-05T16:28:18.507Z,39.41
2017-09-05T16:30:46.442Z,39.67
2017-09-05T16:33:14.380Z,40.28
2017-09-05T16:35:42.351Z,40.48
2017-09-05T16:38:10.260Z,40.49
2017-09-05T16:40:38.189Z,41.54
2017-09-05T16:43:06.151Z,41.63
2017-09-05T16:45:34.084Z,42.34
2017-09-05T16:48:01.979Z,41.61
2017-09-05T16:50:29.915Z,41.69
2017-09-05T16:52:57.836Z,42.38
2017-09-05T16:55:25.827Z,42.56
2017-09-05T16:57:53.763Z,42.71
2017-09-05T17:00:21.712Z,42.34
2017-09-05T17:02:49.751Z,42.81
2017-09-05T17:05:17.653Z,43.74
2017-09-05T17:07:45.565Z,43.35
2017-09-05T17:10:13.615Z,43.44
2017-09-05T17:12:41.606Z,43.16
2017-09-05T17:15:09.528Z,43.35
2017-09-05T17:17:37.481Z,43.44
2017-09-05T17:20:05.375Z,43.84
2017-09-05T17:22:33.330Z,44.41
2017-09-05T17:25:01.444Z,44.53
2017-09-05T17:27:29.330Z,44.81
2017-09-05T17:29:57.263Z,45.35
2017-09-05T17:32:25.175Z,45.73
2017-09-05T17:34:53.075Z,45.90
2017-09-05T17:37:20.993Z,46.02
2017-09-05T17:39:49.091Z,46.46
2017-09-05T17:42:17.007Z,46.62
2017-09-05T17:44:44.924Z,46.77
2017-09-05T17:47:12.937Z,47.34
2017-09-05T17:49:40.849Z,47.62
2017-09-05T17:52:08.771Z,48.21
2017-09-05T17:54:36.698Z,48.10
2017-09-05T17:57:04.596Z,48.22
2017-09-05T17:59:32.495Z,49.37
2017-09-05T18:02:00.398Z,48.82
2017-09-05T18:04:28.302Z,49.08
2017-09-05T18:06:56.268Z,49.74
2017-09-05T18:09:24.254Z,50.07
2017-09-05T18:11:52.201Z,49.52
2017-09-05T18:14:20.177Z,49.97
2017-09-05T18:16:48.130Z,49.38
2017-09-05T18:19:16.043Z,49.70
2017-09-05T18:21:44.097Z,51.69
2017-09-05T18:24:12.143Z,50.03
2017-09-05T18:26:40.186Z,49.50
2017-09-05T18:29:08.092Z,51.07
2017-09-05T18:31:36.012Z,52.16
2017-09-05T18:34:03.948Z,49.81
2017-09-05T18:36:31.852Z,52.41
2017-09-05T18:38:59.747Z,51.92
2017-09-05T18:41:27.651Z,51.97
2017-09-05T18:43:55.564Z,52.54
2017-09-05T18:46:23.505Z,52.90
2017-09-05T18:48:51.406Z,52.32
2017-09-05T18:51:19.303Z,53.58
2017-09-05T18:53:47.274Z,54.47
2017-09-05T18:56:15.187Z,54.17
2017-09-05T18:58:43.101Z,54.02
2017-09-05T19:01:11.074Z,54.40
2017-09-05T19:03:39.113Z,54.99
2017-09-05T19:06:07.241Z,55.22
2017-09-05T19:08:35.188Z,55.41
2017-09-05T19:11:03.223Z,52.16
2017-09-05T19:13:31.229Z,54.59
2017-09-05T19:15:59.132Z,54.04
2017-09-05T19:18:27.045Z,53.85
2017-09-05T19:20:54.989Z,54.63
2017-09-05T19:23:22.889Z,55.36
2017-09-05T19:25:50.813Z,54.89
2017-09-05T19:28:18.770Z,55.06
2017-09-05T19:30:46.679Z,55.34
2017-09-05T19:33:14.593Z,55.36
2017-09-05T19:35:42.524Z,55.40
2017-09-05T19:38:10.505Z,55.46
2017-09-05T19:40:38.476Z,55.06
2017-09-05T19:43:06.431Z,54.73
2017-09-05T19:45:34.404Z,54.53
2017-09-05T19:48:02.325Z,54.44
2017-09-05T19:50:30.240Z,54.64
2017-09-05T19:52:58.284Z,54.90
2017-09-05T19:55:26.330Z,55.39
2017-09-05T19:57:54.234Z,55.84
2017-09-05T20:00:22.272Z,54.13
2017-09-05T20:02:50.327Z,54.77
2017-09-05T20:05:18.250Z,55.33
2017-09-05T20:07:46.220Z,54.11
2017-09-05T20:10:14.300Z,55.20
2017-09-05T20:12:42.199Z,53.70
2017-09-05T20:15:10.137Z,53.10
2017-09-05T20:17:38.038Z,52.99
2017-09-05T20:20:05.943Z,53.43
2017-09-05T20:22:33.883Z,56.61
2017-09-05T20:25:01.795Z,55.46
2017-09-05T20:27:29.842Z,56.92
2017-09-05T20:29:57.782Z,57.00
2017-09-05T20:32:25.719Z,56.78
2017-09-05T20:34:53.688Z,56.61
2017-09-05T20:37:21.599Z,56.48
2017-09-05T20:39:49.603Z,55.19
2017-09-05T20:42:17.539Z,57.14
2017-09-05T20:44:45.445Z,56.23
2017-09-05T20:47:13.364Z,54.97
2017-09-05T20:49:41.271Z,55.76
2017-09-05T20:52:09.171Z,54.88
2017-09-05T20:54:37.108Z,56.17
2017-09-05T20:57:05.008Z,56.68
2017-09-05T20:59:32.899Z,56.52
2017-09-05T21:02:01.236Z,56.73
2017-09-05T21:04:29.134Z,56.17
2017-09-05T21:06:57.156Z,56.91
2017-09-05T21:09:25.069Z,56.61
2017-09-05T21:11:52.986Z,55.92
2017-09-05T21:14:20.903Z,57.24
2017-09-05T21:16:48.934Z,57.74
2017-09-05T21:19:16.903Z,58.11
2017-09-05T21:21:44.820Z,57.75
2017-09-05T21:24:12.742Z,57.16
2017-09-05T21:26:40.673Z,56.87
2017-09-05T21:29:08.684Z,57.85
2017-09-05T21:31:36.580Z,56.33
2017-09-05T21:34:04.503Z,57.31
2017-09-05T21:36:32.481Z,57.92
2017-09-05T21:39:00.387Z,59.46
2017-09-05T21:41:28.287Z,58.43
2017-09-05T21:43:56.248Z,58.38
2017-09-05T21:46:24.268Z,57.62
2017-09-05T21:48:52.183Z,57.89
2017-09-05T21:51:20.198Z,58.08
2017-09-05T21:53:48.116Z,58.65
2017-09-05T21:56:16.146Z,58.74
2017-09-05T21:58:44.072Z,58.74
2017-09-05T22:01:12.083Z,59.40
2017-09-05T22:03:39.992Z,58.57
2017-09-05T22:06:08.004Z,58.64
2017-09-05T22:08:35.912Z,59.00
2017-09-05T22:11:03.836Z,59.75
2017-09-05T22:13:31.745Z,59.76
2017-09-05T22:15:59.668Z,60.24
2017-09-05T22:18:33.161Z,60.63
2017-09-05T22:21:06.611Z,61.04
2017-09-05T22:23:34.526Z,61.28
2017-09-05T22:26:08.205Z,61.17
2017-09-05T22:28:41.576Z,61.24
2017-09-05T22:31:09.511Z,61.35
2017-09-05T22:33:37.479Z,61.92
2017-09-05T22:36:05.423Z,61.61
2017-09-05T22:38:33.352Z,61.97
2017-09-05T22:41:01.276Z,61.29
2017-09-05T22:43:29.195Z,61.25
2017-09-05T22:45:57.105Z,61.23
2017-09-05T22:48:25.012Z,61.56
2017-09-05T22:50:52.949Z,61.84
2017-09-05T22:53:20.865Z,61.72
2017-09-05T22:55:48.796Z,61.47
2017-09-05T22:58:16.702Z,61.71
2017-09-05T23:00:44.771Z,61.55
2017-09-05T23:03:12.684Z,61.66
2017-09-05T23:05:40.813Z,61.96
2017-09-05T23:08:08.745Z,62.08
2017-09-05T23:10:36.673Z,62.29
2017-09-05T23:13:04.664Z,62.01
2017-09-05T23:15:32.596Z,61.69
2017-09-05T23:18:00.552Z,62.02
2017-09-05T23:20:28.609Z,62.03
2017-09-05T23:22:56.538Z,61.91
2017-09-05T23:25:24.469Z,62.28
2017-09-05T23:27:52.468Z,62.45
2017-09-05T23:30:20.380Z,62.39
2017-09-05T23:32:48.299Z,62.25
2017-09-05T23:35:16.258Z,62.25
2017-09-05T23:37:44.163Z,62.50
2017-09-05T23:40:12.105Z,62.45
2017-09-05T23:42:40.032Z,62.48
2017-09-05T23:45:07.940Z,62.99
2017-09-05T23:47:35.847Z,62.92
2017-09-05T23:50:03.884Z,62.93
2017-09-05T23:52:31.877Z,63.24
2017-09-05T23:54:59.811Z,63.22
2017-09-05T23:57:27.845Z,63.19
2017-09-05T23:59:55.746Z,62.86
